Am Qui, Tennessee
Current Conditions -  °F | °C
As of 10:53 AM on Sunday 21 Dec 2014 (Local Time) from KBNA Reporting Station
Scattered Clouds Scattered Clouds  
Wind Chill:   Ceiling: Unl
Heat Index:   Visibility: 10mi
Dew Point: -2°   Wind: 5mph
Humidity: 51%   Direction: 70°ENE
Pressure: 30.22"   Gusts: NA
Location:  36.2555°N, 86.6973°W
Report Text: KBNA 211653Z 07004KT 10SM SCT250 08/M02 A3022 RMK AO2 SLP236 T00781017
Loading
Personal Weather Stations






























Interactive Weather Map New forecast layout! Learn more

10-Day Weather Forecast

Advertisements
Track Severe Weather on mobile